Visit the IPS Meteostar Home Page IPSM Austin-Bergstrom International Airport FORECAST

Austin, Texas

73

95

95

95

98

98

98

98

72
72
75
75
75
75
75

8 miles away at Austin-Bergstrom International Airport 11:53 GMT

Weather:

Clear

Wind:

S 7 mph

Temperature:

73 ° F

Pressure:

29.82

Dew Point:

70 ° F

Relative Humidity:

90

Feels Like:

73 ° F

Visibility:

10 miles


Aviation Observations:

KAUS 261153Z 17006KT 10SM FEW080 FEW250 23/21 A2983 RMK AO2 SLP091 T02280211 10250 20222 55006 =

National Weather Service Forecast:
Travis

travis- including the city of austin
234 AM CDT SAT MAY 26 2018

TODAY

Partly cloudy early in the morning then becoming sunny. highs in the mid 90s. South winds 5 to 10 mph.

TONIGHT

Clear. Lows in the lower 70s. South winds 5 to 10 mph.

SUNDAY

Mostly sunny. Highs in the mid 90s. South winds 5 mph.

SUNDAY NIGHT

Clear. Lows in the mid 70s. Southeast winds 5 mph.

MEMORIAL DAY

Mostly sunny. Highs in the mid 90s. Northeast winds 5 to 10 mph.

MONDAY NIGHT THROUGH TUESDAY NIGHT

Clear. Lows in the mid 70s. highs in the upper 90s.

WEDNESDAY THROUGH FRIDAY

Mostly clear. Highs in the upper 90s. lows in the mid 70s.


Visit the IPS Meteostar Home Page